หน้าหลัก
METAR-TAF:

METAR-TAF

ท่าอากาศยาน :

โมกาดิชู, โซมาเลีย

ละติจูด: 02-02N, ลองจิจูด: 045-21E, ความสูง: 9 ม.

การสังเกตสภาพอากาศปัจจุบัน

รายงานได้ทำขึ้นเมื่อ 3 ชั่วโมงและ 34 นาทีที่แล้ว ณ เวลา 15:00 UTC
ลม 18 นอตจากใต้/ตะวันตกเฉียงใต้
อุณหภูมิ 29°C
ความชื้น 89%
ความกดอากาศ 1012 hPa
ทัศนวิสัย 10 กม. หรือมากกว่า
มีเมฆกระจายเป็นบางส่วนที่ความสูง 2300 ฟุต

METAR: HCMM 271500Z 21018KT 9999 SCT023 29/27 Q1012

เวลา: 21:34 (18:34 UTC)

การพยากรณ์

รายงานได้ทำขึ้นเมื่อ 7 ชั่วโมงและ 34 นาทีที่แล้ว ณ เวลา 11:00 UTC
การพยากรณ์มีผลตั้งแต่วันที่ 27 ณ เวลา 12 UTC จนถึงวันที่ 28 ณ เวลา 18 UTC
ลม 20 นอตจากตะวันตกเฉียงใต้
ทัศนวิสัย 10 กม. หรือมากกว่า
มีเมฆน้อยที่ความสูง 2500 ฟุต
ชั่วคราว
ตั้งแต่วันที่ 28 ณ เวลา 00 UTC จนถึงวันที่ 28 ณ เวลา 04 UTC
ลม 15 นอตจากตะวันตกเฉียงใต้
มีเมฆเป็นส่วนมากเว้นเป็นระยะที่ความสูง 2400 ฟุต
ละอองฝน
กำลังกลายเป็น
ตั้งแต่วันที่ 28 ณ เวลา 10 UTC จนถึงวันที่ 28 ณ เวลา 13 UTC
มีเมฆน้อยที่ความสูง 2600 ฟุต

TAF: HCMM 271100Z 2712/2818 23020KT 9999 FEW025 TEMPO 2800/2804 22015KT DZ BKN024 BECMG 2810/2813 NSW FEW026

สังเกตการณ์สภาพอากาศและพยากรณ์อากาศของสนามบินมากกว่า 4000 แห่ง (รายงาน METAR และ TAF).

สถานีที่ดูได้จะแสดงไว้ด้วยจุดสีเหลืองและสีแดงบนแผนที่.

เลื่อนเมาส์ไปเหนือจุดเพื่อดูชื่อสถานี.

แล้วคลิกเพื่อดูสังเกตการณ์และการพยากรณ์สภาพอากาศ.

ในการเปลี่ยนแผนที่: คลิกที่ปุ่มสีเขียวที่มีกากบาทสีดำเพื่อซูมเข้า; ที่ปุ่มสีเขียวที่มีขีดเพื่อซูมออก; หรือที่ลูกศรสีเขียวเพื่อไปยังแผนที่ที่อยู่ติดกัน.


METAR-TAF: